Time;durP1;ratioP1;P1;durP2;ratioP2;P2;SDS_P1;SDS_P2;PMS_P1;PMS_P2;Temp;Humidity;BMP_temperature;BMP_pressure;BME280_temperature;BME280_humidity;BME280_pressure;Samples;Min_cycle;Max_cycle;Signal;HPM_P1;HPM_P2
2023/07/25 00:01:09;;;;;;;11.82;3.47;;;13.50;99.90;;;;;;5006435;28;20048;-79
2023/07/25 00:03:35;;;;;;;11.85;3.30;;;13.40;99.90;;;;;;4991788;28;20033;-78
2023/07/25 00:06:03;;;;;;;11.32;3.63;;;13.40;99.90;;;;;;5005494;28;20384;-79
2023/07/25 00:08:29;;;;;;;10.13;3.20;;;13.40;99.90;;;;;;5024704;28;20071;-78
2023/07/25 00:10:55;;;;;;;10.98;3.30;;;13.40;99.90;;;;;;4991729;28;20120;-78
2023/07/25 00:13:21;;;;;;;11.10;3.45;;;13.30;99.90;;;;;;5007634;28;20121;-79
2023/07/25 00:15:46;;;;;;;12.30;3.45;;;13.30;99.90;;;;;;5022352;28;20406;-78
2023/07/25 00:18:12;;;;;;;16.15;3.40;;;13.30;99.90;;;;;;5008139;28;20042;-78
2023/07/25 00:20:38;;;;;;;12.63;3.55;;;13.20;99.90;;;;;;5007962;28;20068;-78
2023/07/25 00:23:03;;;;;;;12.70;3.85;;;13.20;99.90;;;;;;4989898;28;20064;-78
2023/07/25 00:25:29;;;;;;;12.07;4.00;;;13.20;99.90;;;;;;4989963;28;20041;-78
2023/07/25 00:27:55;;;;;;;10.52;3.70;;;13.20;99.90;;;;;;5006273;28;20033;-78
2023/07/25 00:30:20;;;;;;;10.98;3.60;;;13.20;99.90;;;;;;4990820;28;20065;-78
2023/07/25 00:32:46;;;;;;;12.40;3.72;;;13.20;99.90;;;;;;5007443;28;20046;-79
2023/07/25 00:35:12;;;;;;;15.18;4.13;;;13.20;99.90;;;;;;4992543;28;20464;-79
2023/07/25 00:37:38;;;;;;;12.77;4.28;;;13.20;99.90;;;;;;4973253;28;20074;-78
2023/07/25 00:40:04;;;;;;;12.48;4.18;;;13.10;99.90;;;;;;4975423;28;20044;-78
2023/07/25 00:42:30;;;;;;;14.13;4.35;;;13.10;99.90;;;;;;4992355;28;20039;-78
2023/07/25 00:44:55;;;;;;;13.43;4.05;;;13.10;99.90;;;;;;4989723;28;20029;-78
2023/07/25 00:47:22;;;;;;;14.35;4.10;;;13.10;99.90;;;;;;4974443;28;20378;-79
2023/07/25 00:49:50;;;;;;;13.15;4.30;;;13.10;99.90;;;;;;4991812;28;20044;-79
2023/07/25 00:52:16;;;;;;;12.13;3.97;;;13.10;99.90;;;;;;5007802;28;20037;-79
2023/07/25 00:54:47;;;;;;;10.45;4.20;;;13.10;99.90;;;;;;5022595;28;20033;-79
2023/07/25 00:57:15;;;;;;;12.63;4.22;;;13.10;99.90;;;;;;5008833;28;21640;-78
2023/07/25 00:59:40;;;;;;;20.40;4.30;;;13.10;99.90;;;;;;4991806;28;20044;-78
2023/07/25 01:02:06;;;;;;;14.38;4.68;;;13.10;99.90;;;;;;4988173;28;20037;-79
2023/07/25 01:04:32;;;;;;;12.00;4.47;;;13.10;99.90;;;;;;4971519;28;20053;-79
2023/07/25 01:07:00;;;;;;;13.13;4.50;;;13.10;99.90;;;;;;5007797;28;20077;-78
2023/07/25 01:09:39;;;;;;;14.57;4.32;;;13.10;99.90;;;;;;5008284;28;20052;-79
2023/07/25 01:12:06;;;;;;;14.32;4.45;;;13.10;99.90;;;;;;5007234;28;20669;-79
2023/07/25 01:14:32;;;;;;;11.60;3.97;;;13.10;99.90;;;;;;4989847;28;20059;-78
2023/07/25 01:17:20;;;;;;;13.65;3.78;;;13.10;99.90;;;;;;4977551;28;20538;-78
2023/07/25 01:19:47;;;;;;;13.68;3.47;;;13.10;99.90;;;;;;5010587;28;20041;-78
2023/07/25 01:22:13;;;;;;;13.60;3.60;;;13.00;99.90;;;;;;5008608;28;20093;-78
2023/07/25 01:24:44;;;;;;;15.68;3.90;;;13.00;99.90;;;;;;5007834;28;20065;-79
2023/07/25 01:27:11;;;;;;;9.85;3.53;;;13.00;99.90;;;;;;4991646;28;20040;-79
2023/07/25 01:29:37;;;;;;;10.40;4.05;;;13.00;99.90;;;;;;5007971;28;20156;-78
2023/07/25 01:32:03;;;;;;;13.77;4.70;;;13.10;99.90;;;;;;4975731;28;20502;-79
2023/07/25 01:34:28;;;;;;;14.70;4.15;;;13.10;99.90;;;;;;5008077;28;20069;-79
2023/07/25 01:36:54;;;;;;;13.50;4.05;;;13.10;99.90;;;;;;5007199;28;20041;-78
2023/07/25 01:39:20;;;;;;;15.30;4.10;;;13.10;99.90;;;;;;5008605;28;20483;-78
2023/07/25 01:41:46;;;;;;;11.95;3.75;;;13.10;99.90;;;;;;4975083;28;20271;-78
2023/07/25 01:44:12;;;;;;;11.02;3.63;;;13.10;99.90;;;;;;5005242;28;20115;-79
2023/07/25 01:46:41;;;;;;;12.40;3.70;;;13.20;99.90;;;;;;4989403;28;20046;-78
2023/07/25 01:49:12;;;;;;;11.77;3.28;;;13.20;99.90;;;;;;4991922;28;20034;-78
2023/07/25 01:51:38;;;;;;;11.55;3.50;;;13.30;99.90;;;;;;5008102;28;20038;-79
2023/07/25 01:54:04;;;;;;;10.45;3.30;;;13.30;99.90;;;;;;5008004;28;20056;-79
2023/07/25 01:56:30;;;;;;;11.18;3.35;;;13.30;99.90;;;;;;4987648;28;20061;-79
2023/07/25 01:58:56;;;;;;;13.07;3.90;;;13.30;99.90;;;;;;4989341;28;20058;-79
2023/07/25 02:01:22;;;;;;;11.00;3.53;;;13.30;99.90;;;;;;4991269;28;20038;-78
2023/07/25 02:03:47;;;;;;;12.93;3.90;;;13.40;99.90;;;;;;5007274;28;20533;-79
2023/07/25 02:06:13;;;;;;;12.85;3.60;;;13.40;99.90;;;;;;5007067;28;20048;-79
2023/07/25 02:08:39;;;;;;;13.15;3.38;;;13.40;99.90;;;;;;5003742;28;20058;-79
2023/07/25 02:11:05;;;;;;;11.07;3.33;;;13.40;99.90;;;;;;5006045;28;20612;-79
2023/07/25 02:13:30;;;;;;;11.70;3.35;;;13.40;99.90;;;;;;5007215;28;20353;-78
2023/07/25 02:15:56;;;;;;;12.15;3.85;;;13.40;99.90;;;;;;5007816;28;20037;-78
2023/07/25 02:18:22;;;;;;;12.73;3.63;;;13.40;99.90;;;;;;4987547;28;20034;-78
2023/07/25 02:20:47;;;;;;;12.77;3.45;;;13.40;99.90;;;;;;5007135;28;20508;-78
2023/07/25 02:23:13;;;;;;;15.88;4.10;;;13.40;99.90;;;;;;5006174;28;20045;-78
2023/07/25 02:25:39;;;;;;;12.75;3.63;;;13.50;99.90;;;;;;5006757;28;20049;-78
2023/07/25 02:28:04;;;;;;;12.90;3.67;;;13.40;99.90;;;;;;5004433;28;20052;-78
2023/07/25 02:30:30;;;;;;;14.88;3.80;;;13.50;99.90;;;;;;5006927;28;20040;-79
2023/07/25 02:32:56;;;;;;;13.65;4.00;;;13.50;99.90;;;;;;5005502;28;20033;-78
2023/07/25 02:35:21;;;;;;;9.85;3.60;;;13.50;99.90;;;;;;5007202;28;20037;-78
2023/07/25 02:37:47;;;;;;;11.90;3.53;;;13.50;99.90;;;;;;4987802;28;20399;-78
2023/07/25 02:40:13;;;;;;;11.40;4.20;;;13.50;99.90;;;;;;4970584;28;20042;-78
2023/07/25 02:42:39;;;;;;;13.23;4.10;;;13.60;99.90;;;;;;5006235;28;20050;-79
2023/07/25 02:45:05;;;;;;;12.07;3.65;;;13.60;99.90;;;;;;4990927;28;20037;-78
2023/07/25 02:47:30;;;;;;;14.48;3.67;;;13.50;99.90;;;;;;5006881;28;20038;-79
2023/07/25 02:49:56;;;;;;;12.45;3.90;;;13.50;99.90;;;;;;4988805;28;20044;-78
2023/07/25 02:52:22;;;;;;;10.93;3.53;;;13.50;99.90;;;;;;5006870;28;20096;-78
2023/07/25 02:54:47;;;;;;;11.70;3.75;;;13.50;99.90;;;;;;4989637;28;20038;-78
2023/07/25 02:57:13;;;;;;;11.98;3.47;;;13.60;99.90;;;;;;4990531;28;20034;-78
2023/07/25 02:59:39;;;;;;;13.82;3.83;;;13.50;99.90;;;;;;5005673;28;20072;-78
2023/07/25 03:02:05;;;;;;;10.77;3.90;;;13.50;99.90;;;;;;5005819;28;20034;-78
2023/07/25 03:04:30;;;;;;;10.00;3.75;;;13.50;99.90;;;;;;4986758;28;20033;-78
2023/07/25 03:06:56;;;;;;;9.95;3.40;;;13.60;99.90;;;;;;4988572;28;20492;-78
2023/07/25 03:09:22;;;;;;;16.95;3.88;;;13.60;99.90;;;;;;5006791;28;20033;-78
2023/07/25 03:11:47;;;;;;;13.20;4.03;;;13.60;99.90;;;;;;4988931;28;20048;-78
2023/07/25 03:14:14;;;;;;;12.02;3.60;;;13.60;99.90;;;;;;5006059;28;20038;-78
2023/07/25 03:16:40;;;;;;;10.68;3.80;;;13.60;99.90;;;;;;5006258;28;20558;-78
2023/07/25 03:19:05;;;;;;;12.50;3.65;;;13.60;99.90;;;;;;4987487;28;20096;-78
2023/07/25 03:21:31;;;;;;;14.85;3.95;;;13.70;99.90;;;;;;4986978;28;20069;-78
2023/07/25 03:23:57;;;;;;;14.18;3.65;;;13.70;99.90;;;;;;4989649;28;20049;-78
2023/07/25 03:26:22;;;;;;;12.60;3.28;;;13.70;99.90;;;;;;4973783;28;20041;-78
2023/07/25 03:28:48;;;;;;;7.75;2.72;;;13.70;99.90;;;;;;5006120;28;20037;-79
2023/07/25 03:31:14;;;;;;;10.77;2.78;;;13.70;99.90;;;;;;5006248;28;20483;-79
2023/07/25 03:33:39;;;;;;;9.05;2.50;;;13.70;99.90;;;;;;4988646;28;20207;-79
2023/07/25 03:36:07;;;;;;;10.05;2.78;;;13.70;99.90;;;;;;4987702;28;20121;-79
2023/07/25 03:38:33;;;;;;;12.48;3.00;;;13.70;99.90;;;;;;5005571;28;20519;-79
2023/07/25 03:40:58;;;;;;;9.15;2.60;;;13.70;99.90;;;;;;5003663;28;20435;-79
2023/07/25 03:43:24;;;;;;;9.52;2.78;;;13.70;99.90;;;;;;5004545;28;20104;-79
2023/07/25 03:45:50;;;;;;;13.68;2.63;;;13.70;99.90;;;;;;5003288;28;20072;-79
2023/07/25 03:48:16;;;;;;;7.70;2.70;;;13.70;99.90;;;;;;5006092;28;20030;-79
2023/07/25 03:50:41;;;;;;;9.90;3.10;;;13.70;99.90;;;;;;4987686;28;20037;-80
2023/07/25 03:53:07;;;;;;;10.85;3.17;;;13.70;99.90;;;;;;4986807;28;20119;-80
2023/07/25 03:55:33;;;;;;;9.68;2.72;;;13.60;99.90;;;;;;5006043;28;20137;-80
2023/07/25 03:57:58;;;;;;;10.35;3.13;;;13.60;99.90;;;;;;4989004;28;20443;-80
2023/07/25 04:00:24;;;;;;;10.48;3.10;;;13.60;99.90;;;;;;5005762;28;20605;-80
2023/07/25 04:02:50;;;;;;;8.93;2.70;;;13.70;99.90;;;;;;5002336;28;20045;-79
2023/07/25 04:05:15;;;;;;;11.85;3.00;;;13.70;99.90;;;;;;5003261;28;20096;-80
2023/07/25 04:07:41;;;;;;;9.98;2.75;;;13.70;99.90;;;;;;4988770;28;20116;-79
2023/07/25 04:10:07;;;;;;;9.32;3.15;;;13.70;99.90;;;;;;5005897;28;20120;-79
2023/07/25 04:12:33;;;;;;;10.52;3.00;;;13.70;99.90;;;;;;4987512;28;20298;-79
2023/07/25 04:14:59;;;;;;;11.90;3.17;;;13.80;99.90;;;;;;5003438;28;20128;-79
2023/07/25 04:17:24;;;;;;;11.70;3.30;;;13.80;99.90;;;;;;5005728;28;20063;-79
2023/07/25 04:19:50;;;;;;;12.75;2.83;;;13.80;99.90;;;;;;5002734;28;20517;-79
2023/07/25 04:22:16;;;;;;;13.77;2.95;;;13.90;99.90;;;;;;5004175;28;20050;-79
2023/07/25 04:24:42;;;;;;;9.60;3.45;;;13.90;99.90;;;;;;5018673;28;20038;-80
2023/07/25 04:27:07;;;;;;;14.75;4.13;;;13.90;99.90;;;;;;5021151;28;20507;-79
2023/07/25 04:29:33;;;;;;;14.90;4.38;;;13.90;99.90;;;;;;4971803;28;20045;-79
2023/07/25 04:31:59;;;;;;;10.68;3.53;;;13.90;99.90;;;;;;5003354;28;20434;-81
2023/07/25 04:34:24;;;;;;;13.27;4.40;;;13.90;99.90;;;;;;5019737;28;20107;-79
2023/07/25 04:36:50;;;;;;;11.65;4.18;;;14.00;99.90;;;;;;4999338;28;20435;-79
2023/07/25 04:39:16;;;;;;;11.05;3.42;;;14.00;99.90;;;;;;4970056;28;20503;-79
2023/07/25 04:41:42;;;;;;;12.93;4.05;;;14.00;99.90;;;;;;5004506;28;20034;-80
2023/07/25 04:44:07;;;;;;;14.68;4.45;;;14.00;99.90;;;;;;5003579;28;20092;-79
2023/07/25 04:46:33;;;;;;;16.30;4.20;;;14.10;99.90;;;;;;4983465;28;20048;-79
2023/07/25 04:48:59;;;;;;;14.02;4.20;;;14.10;99.90;;;;;;4986020;28;20688;-79
2023/07/25 04:51:25;;;;;;;13.02;4.07;;;14.10;99.90;;;;;;5017918;28;20484;-79
2023/07/25 04:53:50;;;;;;;12.35;4.07;;;14.10;99.90;;;;;;4986158;28;20583;-79
2023/07/25 04:56:16;;;;;;;11.20;4.13;;;14.10;99.90;;;;;;5015401;28;20041;-80
2023/07/25 04:58:42;;;;;;;14.73;4.03;;;14.10;99.90;;;;;;4953429;28;20129;-80
2023/07/25 05:01:09;;;;;;;10.40;3.60;;;14.10;99.90;;;;;;4986261;28;20502;-79
2023/07/25 05:03:35;;;;;;;13.20;3.80;;;14.20;99.90;;;;;;4984164;28;20041;-80
2023/07/25 05:06:01;;;;;;;11.70;3.45;;;14.20;99.90;;;;;;5005201;28;20057;-80
2023/07/25 05:08:27;;;;;;;13.77;3.85;;;14.20;99.90;;;;;;4986188;28;20038;-80
2023/07/25 05:10:53;;;;;;;11.70;3.70;;;14.20;99.90;;;;;;5004561;28;20045;-80
2023/07/25 05:13:19;;;;;;;10.93;3.70;;;14.30;99.90;;;;;;5003306;28;20068;-80
2023/07/25 05:15:45;;;;;;;11.88;3.35;;;14.30;99.90;;;;;;5005490;28;20531;-80
2023/07/25 05:18:11;;;;;;;9.95;3.35;;;14.20;99.90;;;;;;5005140;28;20050;-80
2023/07/25 05:20:37;;;;;;;10.93;3.22;;;14.50;99.90;;;;;;5019959;28;20042;-79
2023/07/25 05:23:03;;;;;;;11.80;3.40;;;14.50;99.90;;;;;;4998899;28;20049;-80
2023/07/25 05:25:28;;;;;;;11.45;3.25;;;14.60;99.90;;;;;;4982182;28;20050;-79
2023/07/25 05:27:54;;;;;;;12.25;3.78;;;14.60;99.90;;;;;;4997702;28;20133;-80
2023/07/25 05:30:20;;;;;;;14.10;3.85;;;14.70;99.90;;;;;;4977591;28;20131;-80
2023/07/25 05:32:47;;;;;;;10.25;3.80;;;14.70;99.90;;;;;;4996595;28;20554;-80
2023/07/25 05:35:13;;;;;;;11.63;3.53;;;14.80;99.90;;;;;;4984883;28;20030;-80
2023/07/25 05:37:39;;;;;;;11.88;2.85;;;14.80;99.90;;;;;;5003434;28;20045;-80
2023/07/25 05:40:06;;;;;;;9.30;2.50;;;14.80;99.90;;;;;;4995627;28;20136;-80
2023/07/25 05:42:32;;;;;;;10.80;2.60;;;14.80;99.90;;;;;;4985611;28;20034;-80
2023/07/25 05:45:02;;;;;;;10.07;3.08;;;14.80;99.90;;;;;;5003037;28;20060;-80
2023/07/25 05:47:28;;;;;;;13.23;3.08;;;14.80;99.90;;;;;;4984713;28;21459;-80
2023/07/25 05:49:55;;;;;;;9.43;2.75;;;14.80;99.90;;;;;;5003117;28;20041;-80
2023/07/25 05:52:21;;;;;;;12.00;2.63;;;14.80;99.90;;;;;;5002678;28;20037;-80
2023/07/25 05:54:46;;;;;;;10.88;2.60;;;14.80;99.90;;;;;;5003319;28;20415;-80
2023/07/25 05:57:12;;;;;;;14.70;2.92;;;14.80;99.90;;;;;;5002291;28;20036;-80
2023/07/25 05:59:40;;;;;;;9.85;2.50;;;14.90;99.90;;;;;;5004670;28;20049;-79
2023/07/25 06:02:07;;;;;;;11.85;2.67;;;14.90;99.90;;;;;;4988274;28;20038;-80
2023/07/25 06:04:32;;;;;;;8.68;2.50;;;15.00;99.90;;;;;;5007029;28;20487;-80
2023/07/25 06:06:58;;;;;;;9.13;2.40;;;15.10;99.90;;;;;;5004126;28;20046;-80
2023/07/25 06:09:24;;;;;;;11.65;2.58;;;15.20;99.90;;;;;;5006419;28;20041;-80
2023/07/25 06:11:49;;;;;;;13.68;2.90;;;15.30;99.90;;;;;;5006028;28;20132;-80
2023/07/25 06:14:15;;;;;;;14.23;2.55;;;15.40;99.90;;;;;;4989823;28;20034;-80
2023/07/25 06:16:41;;;;;;;8.43;2.20;;;15.50;99.90;;;;;;5005428;28;20076;-80
2023/07/25 06:19:07;;;;;;;10.55;2.70;;;15.50;99.90;;;;;;5006114;28;20050;-79
2023/07/25 06:21:32;;;;;;;12.32;2.60;;;15.70;99.90;;;;;;4975327;28;20057;-80
2023/07/25 06:23:58;;;;;;;11.98;2.60;;;15.70;99.90;;;;;;4998832;28;20046;-80
2023/07/25 06:26:24;;;;;;;10.00;2.67;;;15.80;99.90;;;;;;5002092;28;20096;-81
2023/07/25 06:28:51;;;;;;;10.68;2.53;;;15.80;99.90;;;;;;5006051;28;20256;-80
2023/07/25 06:31:17;;;;;;;10.25;2.08;;;15.90;99.90;;;;;;5004748;28;20042;-80
2023/07/25 06:33:42;;;;;;;12.38;2.30;;;15.80;99.90;;;;;;4989065;28;20033;-80
2023/07/25 06:36:08;;;;;;;8.00;1.95;;;15.80;99.90;;;;;;5002358;28;20145;-80
2023/07/25 06:38:34;;;;;;;8.68;2.38;;;15.90;99.90;;;;;;5006220;28;21537;-80
2023/07/25 06:40:59;;;;;;;8.82;2.10;;;15.90;99.90;;;;;;5003147;28;20038;-80
2023/07/25 06:43:25;;;;;;;9.57;2.40;;;16.00;99.90;;;;;;5005082;28;20069;-80
2023/07/25 06:45:52;;;;;;;8.77;1.85;;;16.10;99.90;;;;;;5003536;28;20141;-80
2023/07/25 06:48:17;;;;;;;8.68;1.92;;;16.10;99.90;;;;;;4978377;28;20109;-80
2023/07/25 06:50:44;;;;;;;12.93;2.03;;;16.10;99.90;;;;;;5002965;28;20156;-80
2023/07/25 06:53:09;;;;;;;11.90;2.35;;;16.20;99.90;;;;;;5007080;28;20029;-80
2023/07/25 06:55:37;;;;;;;9.15;1.92;;;16.30;99.90;;;;;;4987742;28;20396;-80
2023/07/25 06:58:03;;;;;;;9.55;1.83;;;16.30;99.90;;;;;;5001284;28;20034;-80
2023/07/25 07:00:29;;;;;;;9.93;1.80;;;16.40;99.90;;;;;;5005780;28;20038;-80
2023/07/25 07:02:55;;;;;;;9.10;1.70;;;16.50;99.90;;;;;;5004263;28;20046;-80
2023/07/25 07:05:20;;;;;;;8.98;1.80;;;16.50;99.90;;;;;;4987809;28;20138;-80
2023/07/25 07:07:46;;;;;;;7.20;1.65;;;16.50;99.90;;;;;;5002739;28;20052;-80
2023/07/25 07:10:12;;;;;;;7.88;1.60;;;16.60;99.90;;;;;;4988196;28;20041;-80
2023/07/25 07:12:45;;;;;;;7.85;1.83;;;16.70;99.90;;;;;;5002852;28;20046;-80
2023/07/25 07:15:12;;;;;;;9.63;1.67;;;16.80;99.90;;;;;;5003350;28;20259;-80
2023/07/25 07:17:37;;;;;;;7.10;1.90;;;16.80;99.90;;;;;;4999558;28;20517;-79
2023/07/25 07:20:04;;;;;;;10.30;1.80;;;16.90;99.90;;;;;;4981830;28;20070;-80
2023/07/25 07:22:30;;;;;;;6.88;1.45;;;16.90;99.90;;;;;;4995242;28;20038;-79
2023/07/25 07:24:56;;;;;;;9.23;1.70;;;17.00;99.90;;;;;;4991786;28;20042;-80
2023/07/25 07:27:23;;;;;;;6.53;1.73;;;17.00;99.90;;;;;;4984773;28;20047;-79
2023/07/25 07:29:49;;;;;;;9.68;1.98;;;17.10;99.90;;;;;;5001177;28;20070;-80
2023/07/25 07:32:15;;;;;;;6.90;2.00;;;17.10;99.90;;;;;;4977769;28;20104;-79
2023/07/25 07:34:41;;;;;;;8.38;1.75;;;17.10;99.90;;;;;;4998854;28;20458;-80
2023/07/25 07:37:07;;;;;;;7.78;1.73;;;17.10;99.90;;;;;;4998546;28;20037;-79
2023/07/25 07:39:32;;;;;;;7.68;1.33;;;17.10;99.90;;;;;;4980915;28;20041;-79
2023/07/25 07:41:58;;;;;;;8.50;1.80;;;17.10;99.90;;;;;;4963728;28;20046;-79
2023/07/25 07:44:24;;;;;;;6.78;1.48;;;17.20;99.90;;;;;;4970520;28;20034;-81
2023/07/25 07:46:50;;;;;;;9.23;1.67;;;17.20;99.90;;;;;;4989461;28;20493;-80
2023/07/25 07:49:15;;;;;;;5.93;1.48;;;17.30;99.90;;;;;;4994461;28;20033;-80
2023/07/25 07:51:41;;;;;;;8.40;1.48;;;17.40;99.90;;;;;;4978598;28;20049;-80
2023/07/25 07:54:07;;;;;;;5.28;1.35;;;17.60;99.90;;;;;;4962457;28;20070;-81
2023/07/25 07:56:33;;;;;;;7.22;1.40;;;17.70;99.90;;;;;;4972276;28;20726;-81
2023/07/25 07:58:58;;;;;;;3.80;1.20;;;17.50;99.90;;;;;;4961517;28;20046;-80
2023/07/25 08:01:24;;;;;;;7.78;1.60;;;17.20;99.90;;;;;;4970356;28;20421;-79
2023/07/25 08:03:50;;;;;;;7.72;1.65;;;17.00;99.90;;;;;;4974143;28;20046;-79
2023/07/25 08:06:16;;;;;;;6.53;1.45;;;17.00;99.90;;;;;;4991725;28;20044;-79
2023/07/25 08:08:42;;;;;;;7.07;1.77;;;17.10;99.90;;;;;;4989716;28;20034;-79
2023/07/25 08:11:08;;;;;;;7.00;1.70;;;17.30;99.90;;;;;;4980015;28;20045;-79
2023/07/25 08:13:34;;;;;;;6.57;1.60;;;17.40;99.90;;;;;;4972687;28;20030;-79
2023/07/25 08:16:00;;;;;;;5.85;1.45;;;17.50;99.90;;;;;;4984060;28;20092;-79
2023/07/25 08:18:26;;;;;;;5.40;1.52;;;17.70;99.90;;;;;;4961032;28;20049;-79
2023/07/25 08:20:56;;;;;;;6.90;1.55;;;17.90;99.90;;;;;;4991665;28;20054;-79
2023/07/25 08:23:23;;;;;;;8.63;1.67;;;18.10;99.90;;;;;;4988578;28;20045;-79
2023/07/25 08:25:49;;;;;;;7.55;1.65;;;18.20;99.90;;;;;;4987917;28;20132;-79
2023/07/25 08:28:16;;;;;;;5.90;1.55;;;17.90;99.90;;;;;;5000857;28;20042;-79
2023/07/25 08:30:42;;;;;;;6.82;1.50;;;17.70;99.90;;;;;;4970848;28;20033;-80
2023/07/25 08:33:08;;;;;;;7.88;1.55;;;17.40;99.90;;;;;;5005275;28;20037;-80
2023/07/25 08:35:34;;;;;;;6.75;1.50;;;17.20;99.90;;;;;;4987412;28;20045;-80
2023/07/25 08:37:59;;;;;;;5.78;1.60;;;17.10;99.90;;;;;;5004946;28;20049;-80
2023/07/25 08:40:25;;;;;;;7.00;1.77;;;17.30;99.90;;;;;;5003428;28;20164;-80
2023/07/25 08:42:55;;;;;;;6.85;1.60;;;17.60;99.90;;;;;;4999900;28;20068;-79
2023/07/25 08:45:23;;;;;;;6.35;1.60;;;17.90;99.90;;;;;;5002352;28;20576;-80
2023/07/25 08:47:51;;;;;;;5.88;1.70;;;18.20;99.90;;;;;;4982740;28;20682;-79
2023/07/25 08:50:19;;;;;;;5.05;1.58;;;18.40;99.90;;;;;;5003001;28;20034;-79
2023/07/25 08:52:50;;;;;;;7.07;1.60;;;18.50;99.90;;;;;;5002373;28;20041;-79
2023/07/25 08:55:16;;;;;;;8.13;1.77;;;18.60;99.90;;;;;;5004870;28;20084;-79
2023/07/25 08:57:42;;;;;;;6.63;1.52;;;18.50;99.90;;;;;;4982605;28;20041;-79
2023/07/25 09:00:08;;;;;;;7.90;1.63;;;18.40;99.90;;;;;;4995556;28;20034;-80
2023/07/25 09:02:34;;;;;;;6.18;1.60;;;18.20;99.90;;;;;;4976415;28;20395;-80
2023/07/25 09:05:01;;;;;;;6.90;1.70;;;18.00;99.90;;;;;;4999593;28;20036;-80
2023/07/25 09:07:27;;;;;;;5.35;1.30;;;18.00;99.90;;;;;;4972702;28;20446;-80
2023/07/25 09:09:53;;;;;;;7.25;1.60;;;18.20;99.90;;;;;;4988681;28;20041;-80
2023/07/25 09:12:19;;;;;;;7.88;1.67;;;18.50;99.90;;;;;;5001990;28;20034;-80
2023/07/25 09:14:44;;;;;;;7.45;1.60;;;18.70;99.90;;;;;;4968306;28;20551;-80
2023/07/25 09:17:10;;;;;;;6.75;1.55;;;18.70;99.90;;;;;;4980129;28;20042;-80
2023/07/25 09:19:36;;;;;;;7.97;1.63;;;18.90;99.90;;;;;;4989594;28;20034;-79
2023/07/25 09:22:02;;;;;;;4.03;1.20;;;19.00;99.90;;;;;;5005222;28;20291;-79
2023/07/25 09:24:36;;;;;;;6.93;1.38;;;19.10;99.90;;;;;;5002122;28;20052;-79
2023/07/25 09:27:02;;;;;;;7.15;1.65;;;19.00;99.90;;;;;;4998589;28;20049;-80
2023/07/25 09:29:30;;;;;;;8.10;1.73;;;19.20;99.90;;;;;;4992870;28;20030;-80
2023/07/25 09:31:56;;;;;;;9.45;1.42;;;19.00;99.90;;;;;;5019427;28;20050;-80
2023/07/25 09:34:24;;;;;;;6.07;1.42;;;19.00;99.90;;;;;;4982532;28;20058;-79
2023/07/25 09:36:49;;;;;;;7.47;1.65;;;19.00;99.90;;;;;;4987827;28;20403;-79
2023/07/25 09:39:16;;;;;;;7.85;1.50;;;19.20;99.90;;;;;;4990344;28;20038;-79
2023/07/25 09:41:43;;;;;;;7.55;1.42;;;19.20;99.90;;;;;;5006701;28;20236;-80
2023/07/25 09:44:09;;;;;;;6.75;1.60;;;19.10;99.90;;;;;;4992394;28;20041;-80
2023/07/25 09:46:35;;;;;;;7.20;1.45;;;18.80;99.90;;;;;;5005147;28;20128;-79
2023/07/25 09:49:01;;;;;;;6.97;1.60;;;18.60;99.90;;;;;;5007280;28;20117;-79
2023/07/25 09:51:26;;;;;;;6.85;1.40;;;18.50;99.90;;;;;;4990104;28;20046;-79
2023/07/25 09:53:54;;;;;;;3.10;1.30;;;18.30;99.90;;;;;;5005231;28;20718;-79
2023/07/25 09:56:24;;;;;;;5.38;1.50;;;18.20;99.90;;;;;;5020424;28;20038;-80
2023/07/25 09:58:51;;;;;;;5.20;1.40;;;18.00;99.90;;;;;;4983562;28;20228;-79
2023/07/25 10:01:18;;;;;;;5.82;1.30;;;18.10;99.90;;;;;;5000761;28;20038;-79
2023/07/25 10:03:45;;;;;;;7.32;1.70;;;18.20;99.90;;;;;;5006604;28;20172;-79
2023/07/25 10:06:14;;;;;;;4.43;1.40;;;18.10;99.90;;;;;;5003537;28;20073;-79
2023/07/25 10:08:43;;;;;;;8.23;1.63;;;18.30;99.90;;;;;;5005905;28;20117;-79
2023/07/25 10:11:12;;;;;;;8.13;1.90;;;18.90;99.90;;;;;;4997378;28;20126;-79
2023/07/25 10:13:37;;;;;;;8.27;1.63;;;18.90;99.90;;;;;;5005341;28;20496;-79
2023/07/25 10:16:04;;;;;;;7.18;1.67;;;19.00;99.90;;;;;;5002330;28;20042;-79
2023/07/25 10:18:33;;;;;;;6.38;1.58;;;19.00;99.90;;;;;;4983525;28;20136;-79
2023/07/25 10:20:59;;;;;;;5.47;1.45;;;18.80;99.90;;;;;;5007036;28;20054;-79
2023/07/25 10:23:34;;;;;;;7.95;1.70;;;18.70;99.90;;;;;;5022680;28;20096;-79
2023/07/25 10:26:14;;;;;;;6.65;1.52;;;18.60;99.90;;;;;;5022035;28;20038;-79
2023/07/25 10:28:40;;;;;;;7.38;1.60;;;18.50;99.90;;;;;;4984719;28;20103;-79
2023/07/25 10:31:24;;;;;;;8.65;1.90;;;18.40;99.90;;;;;;4982359;28;20037;-79
2023/07/25 10:33:54;;;;;;;10.75;1.98;;;18.50;99.90;;;;;;4996983;28;20053;-79
2023/07/25 10:36:24;;;;;;;8.13;1.70;;;18.50;99.90;;;;;;4998213;28;20546;-80
2023/07/25 10:38:50;;;;;;;8.85;1.67;;;18.40;99.90;;;;;;4980373;28;20060;-79
2023/07/25 10:41:16;;;;;;;5.40;1.40;;;18.50;99.90;;;;;;4981589;28;20068;-78
2023/07/25 10:43:48;;;;;;;6.25;1.48;;;18.70;99.90;;;;;;5004249;28;20495;-79
2023/07/25 10:46:34;;;;;;;7.18;1.58;;;18.80;99.90;;;;;;5004891;28;20037;-79
2023/07/25 10:49:12;;;;;;;6.72;1.60;;;18.80;99.90;;;;;;5002198;28;20026;-78
2023/07/25 10:51:52;;;;;;;6.63;1.85;;;18.80;99.90;;;;;;4984193;28;20617;-79
2023/07/25 10:54:20;;;;;;;5.53;1.50;;;18.60;99.90;;;;;;5004374;28;20068;-78
2023/07/25 10:57:17;;;;;;;6.63;1.75;;;18.50;99.90;;;;;;5007806;28;20081;-79
2023/07/25 11:00:08;;;;;;;6.53;1.50;;;18.50;99.90;;;;;;5015598;28;20033;-78
2023/07/25 11:02:38;;;;;;;6.90;1.90;;;18.70;99.90;;;;;;5004072;28;20049;-79
2023/07/25 11:05:13;;;;;;;5.70;1.60;;;18.80;99.90;;;;;;5005252;28;20046;-80
2023/07/25 11:07:40;;;;;;;6.85;1.70;;;18.70;99.90;;;;;;5014762;28;20101;-79
2023/07/25 11:10:07;;;;;;;8.10;1.63;;;18.60;99.90;;;;;;4989441;28;20066;-79
2023/07/25 11:12:33;;;;;;;8.52;1.55;;;18.50;99.90;;;;;;4979858;28;20451;-79
2023/07/25 11:15:00;;;;;;;8.23;1.95;;;18.40;99.90;;;;;;5003643;28;20121;-79
2023/07/25 11:17:29;;;;;;;8.32;1.40;;;18.40;99.90;;;;;;5020426;28;20096;-79
2023/07/25 11:20:25;;;;;;;8.45;1.90;;;18.40;99.90;;;;;;4985074;28;20053;-79
2023/07/25 11:22:52;;;;;;;7.35;1.42;;;18.50;99.90;;;;;;4976830;28;20050;-79
2023/07/25 11:25:18;;;;;;;6.95;1.65;;;18.70;99.90;;;;;;4986543;28;20165;-78
2023/07/25 11:27:46;;;;;;;9.55;1.80;;;19.10;99.90;;;;;;4995037;28;20038;-79
2023/07/25 11:30:17;;;;;;;4.63;1.23;;;19.50;99.90;;;;;;5015647;28;20076;-80
2023/07/25 11:32:47;;;;;;;6.65;1.35;;;19.40;99.90;;;;;;4984548;28;20038;-79
2023/07/25 11:35:15;;;;;;;6.43;1.65;;;19.20;99.90;;;;;;4987492;28;20034;-79
2023/07/25 11:37:43;;;;;;;5.22;1.50;;;18.90;99.90;;;;;;5003103;28;20116;-79
2023/07/25 11:40:22;;;;;;;5.38;1.25;;;18.70;99.90;;;;;;5003770;28;20607;-80
2023/07/25 11:42:49;;;;;;;8.80;1.85;;;18.70;99.90;;;;;;4966204;28;20033;-80
2023/07/25 11:45:16;;;;;;;4.80;1.42;;;18.60;99.90;;;;;;4998909;28;20034;-79
2023/07/25 11:47:45;;;;;;;5.78;1.52;;;18.50;99.90;;;;;;5000076;28;20462;-79
2023/07/25 11:50:12;;;;;;;7.00;1.40;;;18.50;99.90;;;;;;4990539;28;20584;-80
2023/07/25 11:52:40;;;;;;;5.78;1.23;;;18.60;99.90;;;;;;5008652;28;20076;-79
2023/07/25 11:55:07;;;;;;;5.25;1.20;;;18.60;99.90;;;;;;5009239;28;20057;-79
2023/07/25 11:57:37;;;;;;;6.20;1.40;;;18.60;99.90;;;;;;4983937;28;20486;-79
2023/07/25 12:00:07;;;;;;;3.90;1.40;;;18.60;99.90;;;;;;4984882;28;20073;-79
2023/07/25 12:02:39;;;;;;;7.75;1.70;;;18.60;99.90;;;;;;4988850;28;20088;-80
2023/07/25 12:05:07;;;;;;;6.72;1.50;;;18.70;99.90;;;;;;4987449;28;20045;-79
2023/07/25 12:07:52;;;;;;;6.57;1.48;;;18.70;99.90;;;;;;4986680;28;20042;-80
2023/07/25 12:10:32;;;;;;;6.43;1.75;;;18.70;99.90;;;;;;5002362;28;20049;-79
2023/07/25 12:13:02;;;;;;;5.95;1.33;;;18.70;99.90;;;;;;5003085;28;20112;-79
2023/07/25 12:15:51;;;;;;;4.55;1.20;;;18.70;99.90;;;;;;5005789;28;20029;-79
2023/07/25 12:18:26;;;;;;;5.55;1.33;;;18.80;99.90;;;;;;4986788;28;20041;-79
2023/07/25 12:20:53;;;;;;;6.55;1.73;;;19.00;99.90;;;;;;4988464;28;20054;-80
2023/07/25 12:23:33;;;;;;;5.85;1.40;;;18.90;99.90;;;;;;5004112;28;20042;-80
2023/07/25 12:26:01;;;;;;;4.80;1.40;;;19.20;99.90;;;;;;4999445;28;20046;-79
2023/07/25 12:28:44;;;;;;;5.78;1.40;;;19.10;99.90;;;;;;5009020;28;20262;-80
2023/07/25 12:31:11;;;;;;;5.88;1.13;;;19.10;99.90;;;;;;4987586;28;20064;-79
2023/07/25 12:33:38;;;;;;;10.32;1.70;;;19.00;99.90;;;;;;4986398;28;20041;-80
2023/07/25 12:36:04;;;;;;;7.05;1.90;;;19.10;99.90;;;;;;4999279;28;20096;-79
2023/07/25 12:38:30;;;;;;;5.65;1.30;;;19.30;99.90;;;;;;5003124;28;21353;-80
2023/07/25 12:40:56;;;;;;;4.75;1.20;;;19.40;99.90;;;;;;4985735;28;20293;-79
2023/07/25 12:43:22;;;;;;;5.80;1.33;;;19.60;99.90;;;;;;4998765;28;20049;-79